sensor_id;sensor_type;location;lat;lon;timestamp;P1;durP1;ratioP1;P2;durP2;ratioP2
1811;SDS011;904;47.814;11.134;2023-01-10T00:00:57;1.92;;;0.82;;
1811;SDS011;904;47.814;11.134;2023-01-10T00:03:31;2.20;;;0.90;;
1811;SDS011;904;47.814;11.134;2023-01-10T00:05:59;1.85;;;0.90;;
1811;SDS011;904;47.814;11.134;2023-01-10T00:08:27;2.17;;;1.10;;
1811;SDS011;904;47.814;11.134;2023-01-10T00:10:56;2.53;;;0.82;;
1811;SDS011;904;47.814;11.134;2023-01-10T00:13:43;3.40;;;1.30;;
1811;SDS011;904;47.814;11.134;2023-01-10T00:16:09;3.55;;;1.10;;
1811;SDS011;904;47.814;11.134;2023-01-10T00:18:36;2.20;;;1.02;;
1811;SDS011;904;47.814;11.134;2023-01-10T00:21:03;2.40;;;1.15;;
1811;SDS011;904;47.814;11.134;2023-01-10T00:23:35;2.55;;;0.85;;
1811;SDS011;904;47.814;11.134;2023-01-10T00:26:03;2.88;;;0.90;;
1811;SDS011;904;47.814;11.134;2023-01-10T00:28:31;2.30;;;0.80;;
1811;SDS011;904;47.814;11.134;2023-01-10T00:30:59;1.90;;;0.80;;
1811;SDS011;904;47.814;11.134;2023-01-10T00:33:31;3.47;;;0.90;;
1811;SDS011;904;47.814;11.134;2023-01-10T00:35:59;5.55;;;1.15;;
1811;SDS011;904;47.814;11.134;2023-01-10T00:38:27;2.95;;;0.88;;
1811;SDS011;904;47.814;11.134;2023-01-10T00:40:56;4.75;;;0.90;;
1811;SDS011;904;47.814;11.134;2023-01-10T00:43:24;2.95;;;0.90;;
1811;SDS011;904;47.814;11.134;2023-01-10T00:46:08;1.80;;;0.70;;
1811;SDS011;904;47.814;11.134;2023-01-10T00:48:36;1.95;;;0.82;;
1811;SDS011;904;47.814;11.134;2023-01-10T00:51:05;2.55;;;0.90;;
1811;SDS011;904;47.814;11.134;2023-01-10T00:53:32;1.90;;;0.65;;
1811;SDS011;904;47.814;11.134;2023-01-10T00:56:01;2.00;;;0.70;;
1811;SDS011;904;47.814;11.134;2023-01-10T00:58:28;2.38;;;1.10;;
1811;SDS011;904;47.814;11.134;2023-01-10T01:00:58;1.70;;;0.70;;
1811;SDS011;904;47.814;11.134;2023-01-10T01:03:25;1.83;;;0.70;;
1811;SDS011;904;47.814;11.134;2023-01-10T01:05:52;1.60;;;0.70;;
1811;SDS011;904;47.814;11.134;2023-01-10T01:08:19;2.08;;;0.90;;
1811;SDS011;904;47.814;11.134;2023-01-10T01:10:46;2.35;;;0.80;;
1811;SDS011;904;47.814;11.134;2023-01-10T01:13:16;2.47;;;0.77;;
1811;SDS011;904;47.814;11.134;2023-01-10T01:15:44;2.28;;;1.08;;
1811;SDS011;904;47.814;11.134;2023-01-10T01:18:12;2.60;;;1.00;;
1811;SDS011;904;47.814;11.134;2023-01-10T01:20:40;2.88;;;1.08;;
1811;SDS011;904;47.814;11.134;2023-01-10T01:23:09;3.38;;;1.00;;
1811;SDS011;904;47.814;11.134;2023-01-10T01:25:37;2.70;;;1.17;;
1811;SDS011;904;47.814;11.134;2023-01-10T01:28:05;3.80;;;1.23;;
1811;SDS011;904;47.814;11.134;2023-01-10T01:30:33;2.63;;;1.30;;
1811;SDS011;904;47.814;11.134;2023-01-10T01:33:01;2.05;;;0.98;;
1811;SDS011;904;47.814;11.134;2023-01-10T01:35:28;4.05;;;1.30;;
1811;SDS011;904;47.814;11.134;2023-01-10T01:37:57;2.33;;;1.00;;
1811;SDS011;904;47.814;11.134;2023-01-10T01:40:24;2.28;;;0.90;;
1811;SDS011;904;47.814;11.134;2023-01-10T01:42:52;2.40;;;0.80;;
1811;SDS011;904;47.814;11.134;2023-01-10T01:45:37;2.00;;;1.17;;
1811;SDS011;904;47.814;11.134;2023-01-10T01:48:16;2.15;;;0.90;;
1811;SDS011;904;47.814;11.134;2023-01-10T01:50:55;2.55;;;0.90;;
1811;SDS011;904;47.814;11.134;2023-01-10T01:53:31;1.90;;;0.90;;
1811;SDS011;904;47.814;11.134;2023-01-10T01:56:03;2.00;;;0.80;;
1811;SDS011;904;47.814;11.134;2023-01-10T01:58:40;2.00;;;0.80;;
1811;SDS011;904;47.814;11.134;2023-01-10T02:01:14;1.95;;;1.00;;
1811;SDS011;904;47.814;11.134;2023-01-10T02:03:43;1.63;;;0.65;;
1811;SDS011;904;47.814;11.134;2023-01-10T02:06:14;1.90;;;1.13;;
1811;SDS011;904;47.814;11.134;2023-01-10T02:08:44;2.63;;;0.85;;
1811;SDS011;904;47.814;11.134;2023-01-10T02:11:16;1.98;;;0.80;;
1811;SDS011;904;47.814;11.134;2023-01-10T02:13:43;2.17;;;0.68;;
1811;SDS011;904;47.814;11.134;2023-01-10T02:16:11;1.60;;;0.60;;
1811;SDS011;904;47.814;11.134;2023-01-10T02:18:41;2.20;;;0.60;;
1811;SDS011;904;47.814;11.134;2023-01-10T02:24:18;1.80;;;0.70;;
1811;SDS011;904;47.814;11.134;2023-01-10T02:27:12;2.10;;;0.70;;
1811;SDS011;904;47.814;11.134;2023-01-10T02:29:57;1.60;;;0.70;;
1811;SDS011;904;47.814;11.134;2023-01-10T02:32:49;1.70;;;0.68;;
1811;SDS011;904;47.814;11.134;2023-01-10T02:35:31;1.58;;;0.68;;
1811;SDS011;904;47.814;11.134;2023-01-10T02:38:13;1.80;;;0.80;;
1811;SDS011;904;47.814;11.134;2023-01-10T02:40:50;1.60;;;0.60;;
1811;SDS011;904;47.814;11.134;2023-01-10T02:43:23;1.65;;;0.70;;
1811;SDS011;904;47.814;11.134;2023-01-10T02:45:57;1.50;;;0.60;;
1811;SDS011;904;47.814;11.134;2023-01-10T02:48:32;2.55;;;1.10;;
1811;SDS011;904;47.814;11.134;2023-01-10T02:51:02;1.73;;;0.80;;
1811;SDS011;904;47.814;11.134;2023-01-10T02:53:34;1.83;;;0.90;;
1811;SDS011;904;47.814;11.134;2023-01-10T02:59:13;1.70;;;0.80;;
1811;SDS011;904;47.814;11.134;2023-01-10T03:02:09;2.20;;;1.10;;
1811;SDS011;904;47.814;11.134;2023-01-10T03:04:51;1.90;;;0.90;;
1811;SDS011;904;47.814;11.134;2023-01-10T03:07:32;2.20;;;0.90;;
1811;SDS011;904;47.814;11.134;2023-01-10T03:10:05;1.80;;;0.80;;
1811;SDS011;904;47.814;11.134;2023-01-10T03:12:38;2.00;;;0.93;;
1811;SDS011;904;47.814;11.134;2023-01-10T03:15:11;3.20;;;1.00;;
1811;SDS011;904;47.814;11.134;2023-01-10T03:17:40;1.98;;;0.80;;
1811;SDS011;904;47.814;11.134;2023-01-10T03:20:13;2.70;;;0.80;;
1811;SDS011;904;47.814;11.134;2023-01-10T03:22:41;1.70;;;0.80;;
1811;SDS011;904;47.814;11.134;2023-01-10T03:25:10;2.55;;;1.05;;
1811;SDS011;904;47.814;11.134;2023-01-10T03:27:43;2.00;;;0.85;;
1811;SDS011;904;47.814;11.134;2023-01-10T03:30:18;1.70;;;0.80;;
1811;SDS011;904;47.814;11.134;2023-01-10T03:32:54;1.90;;;0.90;;
1811;SDS011;904;47.814;11.134;2023-01-10T03:35:30;1.75;;;0.80;;
1811;SDS011;904;47.814;11.134;2023-01-10T03:38:06;1.80;;;1.00;;
1811;SDS011;904;47.814;11.134;2023-01-10T03:40:42;2.05;;;0.93;;
1811;SDS011;904;47.814;11.134;2023-01-10T03:43:17;2.20;;;1.00;;
1811;SDS011;904;47.814;11.134;2023-01-10T03:46:05;2.45;;;1.10;;
1811;SDS011;904;47.814;11.134;2023-01-10T03:48:36;2.08;;;0.82;;
1811;SDS011;904;47.814;11.134;2023-01-10T03:51:09;2.00;;;0.90;;
1811;SDS011;904;47.814;11.134;2023-01-10T03:53:39;2.00;;;1.00;;
1811;SDS011;904;47.814;11.134;2023-01-10T03:56:06;1.70;;;0.82;;
1811;SDS011;904;47.814;11.134;2023-01-10T03:58:38;1.95;;;1.23;;
1811;SDS011;904;47.814;11.134;2023-01-10T04:01:05;1.80;;;1.00;;
1811;SDS011;904;47.814;11.134;2023-01-10T04:03:32;2.08;;;1.00;;
1811;SDS011;904;47.814;11.134;2023-01-10T04:06:00;2.38;;;1.42;;
1811;SDS011;904;47.814;11.134;2023-01-10T04:08:30;2.03;;;1.30;;
1811;SDS011;904;47.814;11.134;2023-01-10T04:10:57;3.00;;;1.23;;
1811;SDS011;904;47.814;11.134;2023-01-10T04:13:24;2.80;;;1.10;;
1811;SDS011;904;47.814;11.134;2023-01-10T04:15:51;3.10;;;1.40;;
1811;SDS011;904;47.814;11.134;2023-01-10T04:18:18;2.20;;;1.40;;
1811;SDS011;904;47.814;11.134;2023-01-10T04:20:46;2.35;;;1.42;;
1811;SDS011;904;47.814;11.134;2023-01-10T04:23:13;1.88;;;1.20;;
1811;SDS011;904;47.814;11.134;2023-01-10T04:25:44;1.92;;;1.27;;
1811;SDS011;904;47.814;11.134;2023-01-10T04:28:14;2.05;;;1.35;;
1811;SDS011;904;47.814;11.134;2023-01-10T04:30:41;1.90;;;1.13;;
1811;SDS011;904;47.814;11.134;2023-01-10T04:33:08;2.60;;;1.60;;
1811;SDS011;904;47.814;11.134;2023-01-10T04:35:36;2.30;;;1.58;;
1811;SDS011;904;47.814;11.134;2023-01-10T04:38:04;1.98;;;1.10;;
1811;SDS011;904;47.814;11.134;2023-01-10T04:40:31;2.63;;;1.63;;
1811;SDS011;904;47.814;11.134;2023-01-10T04:43:00;2.95;;;1.30;;
1811;SDS011;904;47.814;11.134;2023-01-10T04:45:27;5.50;;;1.10;;
1811;SDS011;904;47.814;11.134;2023-01-10T04:47:54;3.38;;;1.27;;
1811;SDS011;904;47.814;11.134;2023-01-10T04:50:23;2.83;;;1.20;;
1811;SDS011;904;47.814;11.134;2023-01-10T04:52:50;2.30;;;1.38;;
1811;SDS011;904;47.814;11.134;2023-01-10T04:55:19;2.60;;;1.15;;
1811;SDS011;904;47.814;11.134;2023-01-10T04:57:46;2.15;;;1.00;;
1811;SDS011;904;47.814;11.134;2023-01-10T05:00:15;1.92;;;1.10;;
1811;SDS011;904;47.814;11.134;2023-01-10T05:02:43;1.90;;;1.10;;
1811;SDS011;904;47.814;11.134;2023-01-10T05:05:10;2.50;;;1.45;;
1811;SDS011;904;47.814;11.134;2023-01-10T05:07:38;1.95;;;1.00;;
1811;SDS011;904;47.814;11.134;2023-01-10T05:10:06;2.50;;;1.13;;
1811;SDS011;904;47.814;11.134;2023-01-10T05:12:35;2.20;;;1.08;;
1811;SDS011;904;47.814;11.134;2023-01-10T05:15:02;2.15;;;1.33;;
1811;SDS011;904;47.814;11.134;2023-01-10T05:17:31;2.00;;;1.10;;
1811;SDS011;904;47.814;11.134;2023-01-10T05:19:58;3.55;;;1.20;;
1811;SDS011;904;47.814;11.134;2023-01-10T05:22:27;1.77;;;0.95;;
1811;SDS011;904;47.814;11.134;2023-01-10T05:24:54;1.92;;;1.10;;
1811;SDS011;904;47.814;11.134;2023-01-10T05:27:21;2.63;;;1.30;;
1811;SDS011;904;47.814;11.134;2023-01-10T05:29:49;1.80;;;1.00;;
1811;SDS011;904;47.814;11.134;2023-01-10T05:32:16;1.85;;;1.00;;
1811;SDS011;904;47.814;11.134;2023-01-10T05:34:45;3.88;;;0.90;;
1811;SDS011;904;47.814;11.134;2023-01-10T05:37:12;2.40;;;1.05;;
1811;SDS011;904;47.814;11.134;2023-01-10T05:39:39;1.90;;;0.90;;
1811;SDS011;904;47.814;11.134;2023-01-10T05:42:07;2.00;;;1.00;;
1811;SDS011;904;47.814;11.134;2023-01-10T05:44:34;1.80;;;1.00;;
1811;SDS011;904;47.814;11.134;2023-01-10T05:47:01;2.00;;;0.95;;
1811;SDS011;904;47.814;11.134;2023-01-10T05:49:29;1.85;;;0.90;;
1811;SDS011;904;47.814;11.134;2023-01-10T05:51:58;1.80;;;0.80;;
1811;SDS011;904;47.814;11.134;2023-01-10T05:54:25;1.90;;;0.90;;
1811;SDS011;904;47.814;11.134;2023-01-10T05:56:53;1.95;;;0.98;;
1811;SDS011;904;47.814;11.134;2023-01-10T05:59:21;1.70;;;0.90;;
1811;SDS011;904;47.814;11.134;2023-01-10T06:01:51;1.80;;;0.93;;
1811;SDS011;904;47.814;11.134;2023-01-10T06:04:22;1.60;;;0.80;;
1811;SDS011;904;47.814;11.134;2023-01-10T06:06:50;1.83;;;0.90;;
1811;SDS011;904;47.814;11.134;2023-01-10T06:09:19;3.08;;;0.90;;
1811;SDS011;904;47.814;11.134;2023-01-10T06:11:48;1.83;;;0.85;;
1811;SDS011;904;47.814;11.134;2023-01-10T06:14:16;1.60;;;0.80;;
1811;SDS011;904;47.814;11.134;2023-01-10T06:16:43;1.60;;;0.60;;
1811;SDS011;904;47.814;11.134;2023-01-10T06:19:10;1.73;;;0.80;;
1811;SDS011;904;47.814;11.134;2023-01-10T06:21:37;1.70;;;0.93;;
1811;SDS011;904;47.814;11.134;2023-01-10T06:24:08;1.75;;;0.70;;
1811;SDS011;904;47.814;11.134;2023-01-10T06:26:37;2.70;;;1.30;;
1811;SDS011;904;47.814;11.134;2023-01-10T06:29:07;3.70;;;1.60;;
1811;SDS011;904;47.814;11.134;2023-01-10T06:31:34;2.10;;;1.10;;
1811;SDS011;904;47.814;11.134;2023-01-10T06:34:01;4.63;;;0.80;;
1811;SDS011;904;47.814;11.134;2023-01-10T06:36:30;1.75;;;0.80;;
1811;SDS011;904;47.814;11.134;2023-01-10T06:38:58;1.77;;;0.70;;
1811;SDS011;904;47.814;11.134;2023-01-10T06:41:26;2.03;;;1.00;;
1811;SDS011;904;47.814;11.134;2023-01-10T06:43:54;1.70;;;0.80;;
1811;SDS011;904;47.814;11.134;2023-01-10T06:46:22;1.85;;;0.85;;
1811;SDS011;904;47.814;11.134;2023-01-10T06:48:52;1.70;;;0.80;;
1811;SDS011;904;47.814;11.134;2023-01-10T06:51:19;1.70;;;0.80;;
1811;SDS011;904;47.814;11.134;2023-01-10T06:53:53;1.60;;;0.63;;
1811;SDS011;904;47.814;11.134;2023-01-10T06:56:20;1.98;;;0.95;;
1811;SDS011;904;47.814;11.134;2023-01-10T06:58:47;2.22;;;0.70;;
1811;SDS011;904;47.814;11.134;2023-01-10T07:01:16;2.15;;;0.90;;
1811;SDS011;904;47.814;11.134;2023-01-10T07:03:45;2.45;;;0.77;;
1811;SDS011;904;47.814;11.134;2023-01-10T07:06:13;2.55;;;0.88;;
1811;SDS011;904;47.814;11.134;2023-01-10T07:08:40;1.77;;;1.00;;
1811;SDS011;904;47.814;11.134;2023-01-10T07:11:09;2.10;;;1.20;;
1811;SDS011;904;47.814;11.134;2023-01-10T07:13:37;3.00;;;1.65;;
1811;SDS011;904;47.814;11.134;2023-01-10T07:16:06;3.00;;;1.98;;
1811;SDS011;904;47.814;11.134;2023-01-10T07:18:36;3.28;;;1.40;;
1811;SDS011;904;47.814;11.134;2023-01-10T07:21:05;2.53;;;1.23;;
1811;SDS011;904;47.814;11.134;2023-01-10T07:23:34;1.95;;;1.20;;
1811;SDS011;904;47.814;11.134;2023-01-10T07:26:02;2.05;;;1.15;;
1811;SDS011;904;47.814;11.134;2023-01-10T07:28:31;2.28;;;0.90;;
1811;SDS011;904;47.814;11.134;2023-01-10T07:31:03;2.00;;;1.20;;
1811;SDS011;904;47.814;11.134;2023-01-10T07:33:31;2.10;;;1.00;;
1811;SDS011;904;47.814;11.134;2023-01-10T07:36:00;2.72;;;1.17;;
1811;SDS011;904;47.814;11.134;2023-01-10T07:38:28;3.40;;;1.40;;
1811;SDS011;904;47.814;11.134;2023-01-10T07:40:55;2.22;;;0.90;;
1811;SDS011;904;47.814;11.134;2023-01-10T07:43:22;2.38;;;1.30;;
1811;SDS011;904;47.814;11.134;2023-01-10T07:45:49;1.92;;;1.10;;
1811;SDS011;904;47.814;11.134;2023-01-10T07:48:16;2.78;;;1.08;;
1811;SDS011;904;47.814;11.134;2023-01-10T07:50:43;2.10;;;1.30;;
1811;SDS011;904;47.814;11.134;2023-01-10T07:53:11;2.90;;;1.38;;
1811;SDS011;904;47.814;11.134;2023-01-10T07:55:38;2.05;;;1.10;;
1811;SDS011;904;47.814;11.134;2023-01-10T07:58:06;2.70;;;1.30;;
1811;SDS011;904;47.814;11.134;2023-01-10T08:00:33;3.35;;;1.08;;
1811;SDS011;904;47.814;11.134;2023-01-10T08:03:00;1.80;;;0.80;;
1811;SDS011;904;47.814;11.134;2023-01-10T08:05:27;2.60;;;1.27;;
1811;SDS011;904;47.814;11.134;2023-01-10T08:07:54;2.53;;;1.23;;
1811;SDS011;904;47.814;11.134;2023-01-10T08:10:25;2.30;;;1.10;;
1811;SDS011;904;47.814;11.134;2023-01-10T08:12:52;2.38;;;1.15;;
1811;SDS011;904;47.814;11.134;2023-01-10T08:15:19;2.45;;;1.30;;
1811;SDS011;904;47.814;11.134;2023-01-10T08:17:46;2.13;;;1.00;;
1811;SDS011;904;47.814;11.134;2023-01-10T08:20:13;3.33;;;0.98;;
1811;SDS011;904;47.814;11.134;2023-01-10T08:22:41;3.25;;;1.50;;
1811;SDS011;904;47.814;11.134;2023-01-10T08:25:08;3.75;;;1.20;;
1811;SDS011;904;47.814;11.134;2023-01-10T08:27:36;2.47;;;1.35;;
1811;SDS011;904;47.814;11.134;2023-01-10T08:30:04;2.13;;;1.00;;
1811;SDS011;904;47.814;11.134;2023-01-10T08:32:31;2.60;;;1.10;;
1811;SDS011;904;47.814;11.134;2023-01-10T08:34:58;2.55;;;1.02;;
1811;SDS011;904;47.814;11.134;2023-01-10T08:37:25;4.38;;;1.55;;
1811;SDS011;904;47.814;11.134;2023-01-10T08:39:52;2.83;;;1.33;;
1811;SDS011;904;47.814;11.134;2023-01-10T08:42:19;2.70;;;1.17;;
1811;SDS011;904;47.814;11.134;2023-01-10T08:44:48;2.55;;;1.10;;
1811;SDS011;904;47.814;11.134;2023-01-10T08:47:15;2.30;;;1.25;;
1811;SDS011;904;47.814;11.134;2023-01-10T08:49:41;4.40;;;2.70;;
1811;SDS011;904;47.814;11.134;2023-01-10T08:52:08;5.60;;;1.83;;
1811;SDS011;904;47.814;11.134;2023-01-10T08:54:35;4.40;;;1.77;;
1811;SDS011;904;47.814;11.134;2023-01-10T08:57:02;2.95;;;1.55;;
1811;SDS011;904;47.814;11.134;2023-01-10T08:59:29;3.85;;;1.42;;
1811;SDS011;904;47.814;11.134;2023-01-10T09:01:57;3.83;;;1.70;;
1811;SDS011;904;47.814;11.134;2023-01-10T09:04:24;2.58;;;1.70;;
1811;SDS011;904;47.814;11.134;2023-01-10T09:06:53;2.50;;;1.52;;
1811;SDS011;904;47.814;11.134;2023-01-10T09:09:21;2.72;;;1.65;;
1811;SDS011;904;47.814;11.134;2023-01-10T09:11:48;5.90;;;3.50;;
1811;SDS011;904;47.814;11.134;2023-01-10T09:14:15;3.53;;;1.73;;
1811;SDS011;904;47.814;11.134;2023-01-10T09:16:41;2.70;;;1.55;;
1811;SDS011;904;47.814;11.134;2023-01-10T09:19:10;6.20;;;2.38;;
1811;SDS011;904;47.814;11.134;2023-01-10T09:21:37;5.90;;;1.80;;
1811;SDS011;904;47.814;11.134;2023-01-10T09:24:04;7.38;;;2.10;;
1811;SDS011;904;47.814;11.134;2023-01-10T09:26:32;3.65;;;1.55;;
1811;SDS011;904;47.814;11.134;2023-01-10T09:28:59;4.85;;;2.00;;
1811;SDS011;904;47.814;11.134;2023-01-10T09:31:26;3.22;;;1.33;;
1811;SDS011;904;47.814;11.134;2023-01-10T09:33:53;2.67;;;1.40;;
1811;SDS011;904;47.814;11.134;2023-01-10T09:36:21;4.10;;;1.63;;
1811;SDS011;904;47.814;11.134;2023-01-10T09:38:48;3.15;;;1.30;;
1811;SDS011;904;47.814;11.134;2023-01-10T09:41:32;5.47;;;1.50;;
1811;SDS011;904;47.814;11.134;2023-01-10T09:44:18;2.53;;;1.25;;
1811;SDS011;904;47.814;11.134;2023-01-10T09:46:51;3.67;;;1.50;;
1811;SDS011;904;47.814;11.134;2023-01-10T09:49:29;3.80;;;1.77;;
1811;SDS011;904;47.814;11.134;2023-01-10T09:52:12;3.65;;;1.65;;
1811;SDS011;904;47.814;11.134;2023-01-10T09:54:47;4.53;;;2.17;;
1811;SDS011;904;47.814;11.134;2023-01-10T09:57:16;3.42;;;2.00;;
1811;SDS011;904;47.814;11.134;2023-01-10T09:59:44;5.55;;;2.08;;
1811;SDS011;904;47.814;11.134;2023-01-10T10:02:18;4.90;;;2.15;;
1811;SDS011;904;47.814;11.134;2023-01-10T10:04:57;4.63;;;1.92;;
1811;SDS011;904;47.814;11.134;2023-01-10T10:07:34;10.57;;;2.00;;
1811;SDS011;904;47.814;11.134;2023-01-10T10:10:01;3.95;;;2.35;;
1811;SDS011;904;47.814;11.134;2023-01-10T10:12:32;3.60;;;1.45;;
1811;SDS011;904;47.814;11.134;2023-01-10T10:15:10;4.57;;;1.80;;
1811;SDS011;904;47.814;11.134;2023-01-10T10:17:45;2.83;;;1.65;;
1811;SDS011;904;47.814;11.134;2023-01-10T10:26:01;3.25;;;1.80;;
1811;SDS011;904;47.814;11.134;2023-01-10T10:31:28;3.85;;;1.50;;
1811;SDS011;904;47.814;11.134;2023-01-10T10:34:11;4.88;;;2.35;;
1811;SDS011;904;47.814;11.134;2023-01-10T10:36:42;4.97;;;1.67;;
1811;SDS011;904;47.814;11.134;2023-01-10T10:39:16;6.95;;;2.25;;
1811;SDS011;904;47.814;11.134;2023-01-10T10:41:47;3.28;;;1.67;;
1811;SDS011;904;47.814;11.134;2023-01-10T10:44:26;5.15;;;1.90;;
1811;SDS011;904;47.814;11.134;2023-01-10T10:47:01;5.18;;;2.25;;
1811;SDS011;904;47.814;11.134;2023-01-10T10:49:34;7.38;;;1.65;;
1811;SDS011;904;47.814;11.134;2023-01-10T10:52:06;5.60;;;2.05;;
1811;SDS011;904;47.814;11.134;2023-01-10T10:54:41;6.30;;;1.60;;
1811;SDS011;904;47.814;11.134;2023-01-10T10:57:08;4.70;;;2.10;;
1811;SDS011;904;47.814;11.134;2023-01-10T10:59:36;4.80;;;2.10;;
1811;SDS011;904;47.814;11.134;2023-01-10T11:02:09;6.65;;;2.03;;
1811;SDS011;904;47.814;11.134;2023-01-10T11:04:46;5.25;;;1.80;;
1811;SDS011;904;47.814;11.134;2023-01-10T11:07:14;11.68;;;2.30;;
1811;SDS011;904;47.814;11.134;2023-01-10T11:09:44;9.57;;;1.90;;
1811;SDS011;904;47.814;11.134;2023-01-10T11:12:15;7.38;;;2.53;;
1811;SDS011;904;47.814;11.134;2023-01-10T11:14:52;3.20;;;1.50;;
1811;SDS011;904;47.814;11.134;2023-01-10T11:17:20;7.03;;;2.08;;
1811;SDS011;904;47.814;11.134;2023-01-10T11:19:59;5.80;;;1.35;;
1811;SDS011;904;47.814;11.134;2023-01-10T11:22:28;5.63;;;2.15;;
1811;SDS011;904;47.814;11.134;2023-01-10T11:24:59;5.45;;;1.85;;
1811;SDS011;904;47.814;11.134;2023-01-10T11:27:29;6.55;;;1.50;;
1811;SDS011;904;47.814;11.134;2023-01-10T11:29:58;4.07;;;1.45;;
1811;SDS011;904;47.814;11.134;2023-01-10T11:32:31;3.75;;;1.45;;
1811;SDS011;904;47.814;11.134;2023-01-10T11:35:01;3.97;;;2.15;;
1811;SDS011;904;47.814;11.134;2023-01-10T11:37:32;5.40;;;1.80;;
1811;SDS011;904;47.814;11.134;2023-01-10T11:42:51;3.50;;;2.03;;
1811;SDS011;904;47.814;11.134;2023-01-10T11:45:21;2.85;;;1.30;;
1811;SDS011;904;47.814;11.134;2023-01-10T11:47:54;7.03;;;3.00;;
1811;SDS011;904;47.814;11.134;2023-01-10T11:50:25;5.65;;;1.75;;
1811;SDS011;904;47.814;11.134;2023-01-10T11:52:54;4.22;;;1.95;;
1811;SDS011;904;47.814;11.134;2023-01-10T11:55:22;8.80;;;2.25;;
1811;SDS011;904;47.814;11.134;2023-01-10T11:57:59;4.38;;;1.50;;
1811;SDS011;904;47.814;11.134;2023-01-10T12:00:30;9.45;;;2.05;;
1811;SDS011;904;47.814;11.134;2023-01-10T12:02:59;4.05;;;1.60;;
1811;SDS011;904;47.814;11.134;2023-01-10T12:05:27;3.53;;;1.60;;
1811;SDS011;904;47.814;11.134;2023-01-10T12:07:55;6.75;;;1.50;;
1811;SDS011;904;47.814;11.134;2023-01-10T12:10:25;5.20;;;1.73;;
1811;SDS011;904;47.814;11.134;2023-01-10T12:12:54;5.10;;;2.10;;
1811;SDS011;904;47.814;11.134;2023-01-10T12:15:24;4.25;;;1.80;;
1811;SDS011;904;47.814;11.134;2023-01-10T12:17:52;3.78;;;1.98;;
1811;SDS011;904;47.814;11.134;2023-01-10T12:20:22;4.47;;;1.88;;
1811;SDS011;904;47.814;11.134;2023-01-10T12:22:54;3.72;;;1.80;;
1811;SDS011;904;47.814;11.134;2023-01-10T12:25:29;3.67;;;1.60;;
1811;SDS011;904;47.814;11.134;2023-01-10T12:27:59;6.57;;;1.70;;
1811;SDS011;904;47.814;11.134;2023-01-10T12:30:28;10.00;;;1.80;;
1811;SDS011;904;47.814;11.134;2023-01-10T12:32:58;6.15;;;1.60;;
1811;SDS011;904;47.814;11.134;2023-01-10T12:35:33;4.45;;;1.70;;
1811;SDS011;904;47.814;11.134;2023-01-10T12:38:08;3.50;;;1.52;;
1811;SDS011;904;47.814;11.134;2023-01-10T12:40:50;3.08;;;1.70;;
1811;SDS011;904;47.814;11.134;2023-01-10T12:43:24;3.45;;;1.27;;
1811;SDS011;904;47.814;11.134;2023-01-10T12:46:17;6.28;;;1.60;;
1811;SDS011;904;47.814;11.134;2023-01-10T12:48:49;6.40;;;2.83;;
1811;SDS011;904;47.814;11.134;2023-01-10T12:51:23;5.60;;;2.00;;
1811;SDS011;904;47.814;11.134;2023-01-10T12:53:54;2.38;;;1.30;;
1811;SDS011;904;47.814;11.134;2023-01-10T12:56:26;7.82;;;1.80;;
1811;SDS011;904;47.814;11.134;2023-01-10T12:58:55;4.70;;;1.25;;
1811;SDS011;904;47.814;11.134;2023-01-10T13:01:26;3.40;;;1.20;;
1811;SDS011;904;47.814;11.134;2023-01-10T13:03:57;8.07;;;1.73;;
1811;SDS011;904;47.814;11.134;2023-01-10T13:06:29;4.32;;;2.42;;
1811;SDS011;904;47.814;11.134;2023-01-10T13:08:58;4.65;;;1.60;;
1811;SDS011;904;47.814;11.134;2023-01-10T13:11:34;4.07;;;1.40;;
1811;SDS011;904;47.814;11.134;2023-01-10T13:14:06;2.75;;;1.27;;
1811;SDS011;904;47.814;11.134;2023-01-10T13:16:41;5.72;;;1.50;;
1811;SDS011;904;47.814;11.134;2023-01-10T13:19:22;4.10;;;1.30;;
1811;SDS011;904;47.814;11.134;2023-01-10T13:22:10;4.78;;;1.48;;
1811;SDS011;904;47.814;11.134;2023-01-10T13:24:53;4.03;;;1.33;;
1811;SDS011;904;47.814;11.134;2023-01-10T13:27:22;5.47;;;1.40;;
1811;SDS011;904;47.814;11.134;2023-01-10T13:29:54;5.27;;;1.50;;
1811;SDS011;904;47.814;11.134;2023-01-10T13:32:22;2.20;;;1.20;;
1811;SDS011;904;47.814;11.134;2023-01-10T13:34:52;4.85;;;2.15;;
1811;SDS011;904;47.814;11.134;2023-01-10T13:37:21;3.50;;;1.35;;
1811;SDS011;904;47.814;11.134;2023-01-10T13:39:50;3.05;;;1.50;;
1811;SDS011;904;47.814;11.134;2023-01-10T13:45:24;4.47;;;1.20;;
1811;SDS011;904;47.814;11.134;2023-01-10T13:48:02;4.20;;;1.60;;
1811;SDS011;904;47.814;11.134;2023-01-10T13:50:51;4.15;;;1.80;;
1811;SDS011;904;47.814;11.134;2023-01-10T13:56:33;2.72;;;1.40;;
1811;SDS011;904;47.814;11.134;2023-01-10T13:59:03;5.55;;;1.70;;
1811;SDS011;904;47.814;11.134;2023-01-10T14:01:53;3.58;;;1.33;;
1811;SDS011;904;47.814;11.134;2023-01-10T14:04:44;4.55;;;1.45;;
1811;SDS011;904;47.814;11.134;2023-01-10T14:07:15;3.10;;;1.40;;
1811;SDS011;904;47.814;11.134;2023-01-10T14:09:48;4.70;;;1.70;;
1811;SDS011;904;47.814;11.134;2023-01-10T14:12:21;5.03;;;1.75;;
1811;SDS011;904;47.814;11.134;2023-01-10T14:14:54;3.72;;;1.65;;
1811;SDS011;904;47.814;11.134;2023-01-10T14:17:27;3.17;;;1.35;;
1811;SDS011;904;47.814;11.134;2023-01-10T14:20:15;3.83;;;1.60;;
1811;SDS011;904;47.814;11.134;2023-01-10T14:23:01;5.22;;;1.10;;
1811;SDS011;904;47.814;11.134;2023-01-10T14:25:31;5.00;;;1.40;;
1811;SDS011;904;47.814;11.134;2023-01-10T14:28:00;4.13;;;1.95;;
1811;SDS011;904;47.814;11.134;2023-01-10T14:30:29;2.60;;;1.20;;
1811;SDS011;904;47.814;11.134;2023-01-10T14:32:59;4.00;;;1.40;;
1811;SDS011;904;47.814;11.134;2023-01-10T14:35:32;3.28;;;1.23;;
1811;SDS011;904;47.814;11.134;2023-01-10T14:38:02;5.35;;;1.77;;
1811;SDS011;904;47.814;11.134;2023-01-10T14:40:33;3.67;;;1.77;;
1811;SDS011;904;47.814;11.134;2023-01-10T14:43:06;4.57;;;1.50;;
1811;SDS011;904;47.814;11.134;2023-01-10T14:45:38;5.07;;;1.35;;
1811;SDS011;904;47.814;11.134;2023-01-10T14:48:28;4.65;;;1.50;;
1811;SDS011;904;47.814;11.134;2023-01-10T14:53:55;5.63;;;1.42;;
1811;SDS011;904;47.814;11.134;2023-01-10T14:56:24;3.58;;;1.30;;
1811;SDS011;904;47.814;11.134;2023-01-10T14:58:53;5.60;;;1.85;;
1811;SDS011;904;47.814;11.134;2023-01-10T15:01:26;6.72;;;1.77;;
1811;SDS011;904;47.814;11.134;2023-01-10T15:03:55;2.35;;;1.25;;
1811;SDS011;904;47.814;11.134;2023-01-10T15:06:23;6.95;;;1.70;;
1811;SDS011;904;47.814;11.134;2023-01-10T15:08:56;5.35;;;2.15;;
1811;SDS011;904;47.814;11.134;2023-01-10T15:11:25;5.60;;;1.73;;
1811;SDS011;904;47.814;11.134;2023-01-10T15:13:54;7.35;;;1.85;;
1811;SDS011;904;47.814;11.134;2023-01-10T15:16:25;9.77;;;2.10;;
1811;SDS011;904;47.814;11.134;2023-01-10T15:18:53;11.90;;;2.15;;
1811;SDS011;904;47.814;11.134;2023-01-10T15:21:22;4.03;;;1.45;;
1811;SDS011;904;47.814;11.134;2023-01-10T15:23:50;3.75;;;1.52;;
1811;SDS011;904;47.814;11.134;2023-01-10T15:26:18;3.80;;;1.58;;
1811;SDS011;904;47.814;11.134;2023-01-10T15:29:01;4.22;;;1.60;;
1811;SDS011;904;47.814;11.134;2023-01-10T15:31:35;3.83;;;1.55;;
1811;SDS011;904;47.814;11.134;2023-01-10T15:34:05;3.95;;;1.77;;
1811;SDS011;904;47.814;11.134;2023-01-10T15:36:34;2.90;;;1.20;;
1811;SDS011;904;47.814;11.134;2023-01-10T15:39:02;5.75;;;1.80;;
1811;SDS011;904;47.814;11.134;2023-01-10T15:41:29;4.75;;;2.65;;
1811;SDS011;904;47.814;11.134;2023-01-10T15:46:55;3.45;;;1.58;;
1811;SDS011;904;47.814;11.134;2023-01-10T15:49:22;10.60;;;1.95;;
1811;SDS011;904;47.814;11.134;2023-01-10T15:51:50;4.80;;;1.65;;
1811;SDS011;904;47.814;11.134;2023-01-10T15:54:28;5.35;;;2.00;;
1811;SDS011;904;47.814;11.134;2023-01-10T15:57:03;4.80;;;2.10;;
1811;SDS011;904;47.814;11.134;2023-01-10T15:59:34;15.30;;;3.00;;
1811;SDS011;904;47.814;11.134;2023-01-10T16:02:15;7.97;;;4.15;;
1811;SDS011;904;47.814;11.134;2023-01-10T16:04:47;16.40;;;8.85;;
1811;SDS011;904;47.814;11.134;2023-01-10T16:07:16;33.28;;;17.25;;